sensor_id;sensor_type;location;lat;lon;timestamp;P1;P2;P0
70243;PMS7003;57634;51.136;17.024;2022-12-20T00:01:20;17;13;9
70243;PMS7003;57634;51.136;17.024;2022-12-20T00:04:23;12;11;6
70243;PMS7003;57634;51.136;17.024;2022-12-20T00:07:25;15;11;7
70243;PMS7003;57634;51.136;17.024;2022-12-20T00:10:26;11;11;6
70243;PMS7003;57634;51.136;17.024;2022-12-20T00:13:28;11;10;6
70243;PMS7003;57634;51.136;17.024;2022-12-20T00:16:29;12;10;6
70243;PMS7003;57634;51.136;17.024;2022-12-20T00:19:32;14;10;7
70243;PMS7003;57634;51.136;17.024;2022-12-20T00:23:01;11;10;7
70243;PMS7003;57634;51.136;17.024;2022-12-20T00:29:14;12;9;6
70243;PMS7003;57634;51.136;17.024;2022-12-20T00:32:16;16;11;6
70243;PMS7003;57634;51.136;17.024;2022-12-20T00:35:17;13;11;6
70243;PMS7003;57634;51.136;17.024;2022-12-20T00:38:18;11;10;6
70243;PMS7003;57634;51.136;17.024;2022-12-20T00:41:21;10;8;6
70243;PMS7003;57634;51.136;17.024;2022-12-20T00:44:24;10;9;4
70243;PMS7003;57634;51.136;17.024;2022-12-20T00:47:25;15;10;6
70243;PMS7003;57634;51.136;17.024;2022-12-20T00:50:27;13;11;6
70243;PMS7003;57634;51.136;17.024;2022-12-20T00:53:29;10;9;5
70243;PMS7003;57634;51.136;17.024;2022-12-20T00:56:59;11;10;6
70243;PMS7003;57634;51.136;17.024;2022-12-20T01:00:00;9;9;6
70243;PMS7003;57634;51.136;17.024;2022-12-20T01:03:02;10;9;7
70243;PMS7003;57634;51.136;17.024;2022-12-20T01:06:04;10;10;7
70243;PMS7003;57634;51.136;17.024;2022-12-20T01:09:06;11;8;6
70243;PMS7003;57634;51.136;17.024;2022-12-20T01:12:08;10;9;5
70243;PMS7003;57634;51.136;17.024;2022-12-20T01:15:10;9;9;6
70243;PMS7003;57634;51.136;17.024;2022-12-20T01:18:12;11;9;7
70243;PMS7003;57634;51.136;17.024;2022-12-20T01:21:14;13;9;7
70243;PMS7003;57634;51.136;17.024;2022-12-20T01:24:18;7;5;2
70243;PMS7003;57634;51.136;17.024;2022-12-20T01:27:20;11;9;5
70243;PMS7003;57634;51.136;17.024;2022-12-20T01:30:22;11;10;6
70243;PMS7003;57634;51.136;17.024;2022-12-20T01:33:23;14;12;6
70243;PMS7003;57634;51.136;17.024;2022-12-20T01:36:51;13;12;9
70243;PMS7003;57634;51.136;17.024;2022-12-20T01:39:52;11;10;7
70243;PMS7003;57634;51.136;17.024;2022-12-20T01:42:53;13;9;6
70243;PMS7003;57634;51.136;17.024;2022-12-20T01:45:55;12;9;6
70243;PMS7003;57634;51.136;17.024;2022-12-20T01:52:11;11;11;7
70243;PMS7003;57634;51.136;17.024;2022-12-20T01:55:19;15;12;7
70243;PMS7003;57634;51.136;17.024;2022-12-20T01:58:24;13;12;7
70243;PMS7003;57634;51.136;17.024;2022-12-20T02:01:26;13;11;6
70243;PMS7003;57634;51.136;17.024;2022-12-20T02:04:54;13;12;8
70243;PMS7003;57634;51.136;17.024;2022-12-20T02:07:56;14;12;7
70243;PMS7003;57634;51.136;17.024;2022-12-20T02:11:06;14;12;9
70243;PMS7003;57634;51.136;17.024;2022-12-20T02:20:45;16;15;9
70243;PMS7003;57634;51.136;17.024;2022-12-20T02:27:32;8;7;3
70243;PMS7003;57634;51.136;17.024;2022-12-20T02:30:44;14;10;6
70243;PMS7003;57634;51.136;17.024;2022-12-20T02:33:49;15;13;8
70243;PMS7003;57634;51.136;17.024;2022-12-20T02:36:54;16;13;7
70243;PMS7003;57634;51.136;17.024;2022-12-20T02:39:55;14;11;8
70243;PMS7003;57634;51.136;17.024;2022-12-20T02:43:00;15;13;8
70243;PMS7003;57634;51.136;17.024;2022-12-20T02:46:41;13;11;6
70243;PMS7003;57634;51.136;17.024;2022-12-20T02:49:44;14;11;7
70243;PMS7003;57634;51.136;17.024;2022-12-20T02:52:47;12;11;7
70243;PMS7003;57634;51.136;17.024;2022-12-20T02:56:09;13;11;7
70243;PMS7003;57634;51.136;17.024;2022-12-20T03:02:16;11;11;6
70243;PMS7003;57634;51.136;17.024;2022-12-20T03:05:18;10;8;4
70243;PMS7003;57634;51.136;17.024;2022-12-20T03:08:51;11;8;6
70243;PMS7003;57634;51.136;17.024;2022-12-20T03:11:52;14;12;8
70243;PMS7003;57634;51.136;17.024;2022-12-20T03:14:54;12;10;6
70243;PMS7003;57634;51.136;17.024;2022-12-20T03:17:55;10;9;6
70243;PMS7003;57634;51.136;17.024;2022-12-20T03:20:57;9;9;5
70243;PMS7003;57634;51.136;17.024;2022-12-20T03:23:58;13;11;7
70243;PMS7003;57634;51.136;17.024;2022-12-20T03:26:59;12;10;6
70243;PMS7003;57634;51.136;17.024;2022-12-20T03:30:01;14;11;6
70243;PMS7003;57634;51.136;17.024;2022-12-20T03:33:03;11;10;7
70243;PMS7003;57634;51.136;17.024;2022-12-20T03:36:04;12;10;6
70243;PMS7003;57634;51.136;17.024;2022-12-20T03:39:06;12;9;5
70243;PMS7003;57634;51.136;17.024;2022-12-20T03:42:07;11;8;6
70243;PMS7003;57634;51.136;17.024;2022-12-20T03:45:09;10;9;6
70243;PMS7003;57634;51.136;17.024;2022-12-20T03:48:11;11;11;7
70243;PMS7003;57634;51.136;17.024;2022-12-20T03:51:40;12;9;7
70243;PMS7003;57634;51.136;17.024;2022-12-20T03:54:41;11;10;7
70243;PMS7003;57634;51.136;17.024;2022-12-20T03:57:43;9;9;6
70243;PMS7003;57634;51.136;17.024;2022-12-20T04:00:44;12;11;7
70243;PMS7003;57634;51.136;17.024;2022-12-20T04:03:45;10;9;5
70243;PMS7003;57634;51.136;17.024;2022-12-20T04:06:46;9;8;7
70243;PMS7003;57634;51.136;17.024;2022-12-20T04:09:49;13;10;6
70243;PMS7003;57634;51.136;17.024;2022-12-20T04:12:51;12;10;6
70243;PMS7003;57634;51.136;17.024;2022-12-20T04:15:53;11;10;6
70243;PMS7003;57634;51.136;17.024;2022-12-20T04:18:54;11;10;7
70243;PMS7003;57634;51.136;17.024;2022-12-20T04:21:56;12;10;6
70243;PMS7003;57634;51.136;17.024;2022-12-20T04:24:59;11;10;8
70243;PMS7003;57634;51.136;17.024;2022-12-20T04:28:00;10;9;6
70243;PMS7003;57634;51.136;17.024;2022-12-20T04:31:01;15;9;6
70243;PMS7003;57634;51.136;17.024;2022-12-20T04:34:30;11;10;7
70243;PMS7003;57634;51.136;17.024;2022-12-20T04:37:32;12;10;7
70243;PMS7003;57634;51.136;17.024;2022-12-20T04:40:33;11;10;7
70243;PMS7003;57634;51.136;17.024;2022-12-20T04:43:34;11;10;7
70243;PMS7003;57634;51.136;17.024;2022-12-20T04:46:35;9;8;7
70243;PMS7003;57634;51.136;17.024;2022-12-20T04:49:36;8;7;4
70243;PMS7003;57634;51.136;17.024;2022-12-20T04:52:37;10;8;5
70243;PMS7003;57634;51.136;17.024;2022-12-20T04:55:51;7;7;5
70243;PMS7003;57634;51.136;17.024;2022-12-20T04:58:53;9;9;6
70243;PMS7003;57634;51.136;17.024;2022-12-20T05:01:56;12;9;6
70243;PMS7003;57634;51.136;17.024;2022-12-20T05:04:58;12;12;8
70243;PMS7003;57634;51.136;17.024;2022-12-20T05:08:28;14;11;7
70243;PMS7003;57634;51.136;17.024;2022-12-20T05:11:29;14;13;8
70243;PMS7003;57634;51.136;17.024;2022-12-20T05:14:31;13;12;8
70243;PMS7003;57634;51.136;17.024;2022-12-20T05:17:32;14;12;7
70243;PMS7003;57634;51.136;17.024;2022-12-20T05:20:34;16;15;10
70243;PMS7003;57634;51.136;17.024;2022-12-20T05:23:36;15;13;7
70243;PMS7003;57634;51.136;17.024;2022-12-20T05:26:50;15;12;7
70243;PMS7003;57634;51.136;17.024;2022-12-20T05:29:51;14;12;7
70243;PMS7003;57634;51.136;17.024;2022-12-20T05:32:53;15;13;8
70243;PMS7003;57634;51.136;17.024;2022-12-20T05:35:54;14;12;8
70243;PMS7003;57634;51.136;17.024;2022-12-20T05:38:56;13;11;8
70243;PMS7003;57634;51.136;17.024;2022-12-20T05:42:26;13;11;7
70243;PMS7003;57634;51.136;17.024;2022-12-20T05:45:27;14;14;8
70243;PMS7003;57634;51.136;17.024;2022-12-20T05:48:28;16;15;9
70243;PMS7003;57634;51.136;17.024;2022-12-20T05:51:29;16;14;8
70243;PMS7003;57634;51.136;17.024;2022-12-20T05:54:30;24;21;13
70243;PMS7003;57634;51.136;17.024;2022-12-20T05:57:32;34;28;17
70243;PMS7003;57634;51.136;17.024;2022-12-20T06:00:33;18;15;8
70243;PMS7003;57634;51.136;17.024;2022-12-20T06:03:34;21;18;13
70243;PMS7003;57634;51.136;17.024;2022-12-20T06:06:37;43;35;20
70243;PMS7003;57634;51.136;17.024;2022-12-20T06:09:38;27;24;15
70243;PMS7003;57634;51.136;17.024;2022-12-20T06:12:40;12;12;8
70243;PMS7003;57634;51.136;17.024;2022-12-20T06:15:41;21;19;13
70243;PMS7003;57634;51.136;17.024;2022-12-20T06:18:42;21;19;13
70243;PMS7003;57634;51.136;17.024;2022-12-20T06:21:43;18;16;11
70243;PMS7003;57634;51.136;17.024;2022-12-20T06:24:45;27;25;15
70243;PMS7003;57634;51.136;17.024;2022-12-20T06:28:13;19;17;11
70243;PMS7003;57634;51.136;17.024;2022-12-20T06:31:21;18;16;10
70243;PMS7003;57634;51.136;17.024;2022-12-20T06:34:22;16;14;9
70243;PMS7003;57634;51.136;17.024;2022-12-20T06:37:24;20;17;11
70243;PMS7003;57634;51.136;17.024;2022-12-20T06:40:25;18;17;11
70243;PMS7003;57634;51.136;17.024;2022-12-20T06:43:26;15;10;4
70243;PMS7003;57634;51.136;17.024;2022-12-20T06:46:28;19;17;12
70243;PMS7003;57634;51.136;17.024;2022-12-20T06:49:29;18;15;9
70243;PMS7003;57634;51.136;17.024;2022-12-20T06:52:31;21;16;11
70243;PMS7003;57634;51.136;17.024;2022-12-20T06:55:32;17;15;10
70243;PMS7003;57634;51.136;17.024;2022-12-20T06:58:33;19;16;11
70243;PMS7003;57634;51.136;17.024;2022-12-20T07:01:36;19;17;11
70243;PMS7003;57634;51.136;17.024;2022-12-20T07:04:37;21;17;9
70243;PMS7003;57634;51.136;17.024;2022-12-20T07:08:06;18;14;9
70243;PMS7003;57634;51.136;17.024;2022-12-20T07:11:08;22;18;11
70243;PMS7003;57634;51.136;17.024;2022-12-20T07:14:10;19;17;13
70243;PMS7003;57634;51.136;17.024;2022-12-20T07:17:12;21;16;9
70243;PMS7003;57634;51.136;17.024;2022-12-20T07:20:14;17;15;10
70243;PMS7003;57634;51.136;17.024;2022-12-20T07:23:16;19;15;10
70243;PMS7003;57634;51.136;17.024;2022-12-20T07:26:19;14;13;8
70243;PMS7003;57634;51.136;17.024;2022-12-20T07:29:20;16;14;10
70243;PMS7003;57634;51.136;17.024;2022-12-20T07:32:21;22;15;11
70243;PMS7003;57634;51.136;17.024;2022-12-20T07:35:23;19;17;12
70243;PMS7003;57634;51.136;17.024;2022-12-20T07:38:24;16;14;8
70243;PMS7003;57634;51.136;17.024;2022-12-20T07:41:26;16;13;10
70243;PMS7003;57634;51.136;17.024;2022-12-20T07:44:27;19;17;12
70243;PMS7003;57634;51.136;17.024;2022-12-20T07:47:58;26;19;12
70243;PMS7003;57634;51.136;17.024;2022-12-20T07:51:00;17;15;9
70243;PMS7003;57634;51.136;17.024;2022-12-20T07:54:09;21;18;12
70243;PMS7003;57634;51.136;17.024;2022-12-20T07:57:15;26;18;12
70243;PMS7003;57634;51.136;17.024;2022-12-20T08:00:21;21;16;10
70243;PMS7003;57634;51.136;17.024;2022-12-20T08:03:24;20;16;11
70243;PMS7003;57634;51.136;17.024;2022-12-20T08:06:32;18;15;9
70243;PMS7003;57634;51.136;17.024;2022-12-20T08:09:38;22;20;14
70243;PMS7003;57634;51.136;17.024;2022-12-20T08:13:09;14;12;9
70243;PMS7003;57634;51.136;17.024;2022-12-20T08:16:10;15;13;10
70243;PMS7003;57634;51.136;17.024;2022-12-20T08:19:12;17;13;9
70243;PMS7003;57634;51.136;17.024;2022-12-20T08:22:14;19;17;11
70243;PMS7003;57634;51.136;17.024;2022-12-20T08:25:15;18;16;11
70243;PMS7003;57634;51.136;17.024;2022-12-20T08:28:17;15;14;9
70243;PMS7003;57634;51.136;17.024;2022-12-20T08:31:18;17;14;10
70243;PMS7003;57634;51.136;17.024;2022-12-20T08:34:19;18;15;9
70243;PMS7003;57634;51.136;17.024;2022-12-20T08:37:20;16;14;10
70243;PMS7003;57634;51.136;17.024;2022-12-20T08:40:22;18;16;11
70243;PMS7003;57634;51.136;17.024;2022-12-20T08:43:23;17;15;10
70243;PMS7003;57634;51.136;17.024;2022-12-20T08:46:24;16;15;9
70243;PMS7003;57634;51.136;17.024;2022-12-20T08:49:25;18;16;9
70243;PMS7003;57634;51.136;17.024;2022-12-20T08:52:29;21;20;11
70243;PMS7003;57634;51.136;17.024;2022-12-20T08:55:30;17;16;9
70243;PMS7003;57634;51.136;17.024;2022-12-20T08:58:57;20;16;9
70243;PMS7003;57634;51.136;17.024;2022-12-20T09:01:59;20;18;11
70243;PMS7003;57634;51.136;17.024;2022-12-20T09:05:00;18;15;9
70243;PMS7003;57634;51.136;17.024;2022-12-20T09:08:02;16;14;9
70243;PMS7003;57634;51.136;17.024;2022-12-20T09:11:04;15;13;8
70243;PMS7003;57634;51.136;17.024;2022-12-20T09:14:10;20;16;9
70243;PMS7003;57634;51.136;17.024;2022-12-20T09:19:41;19;17;10
70243;PMS7003;57634;51.136;17.024;2022-12-20T09:22:43;16;14;10
70243;PMS7003;57634;51.136;17.024;2022-12-20T09:25:44;20;17;11
70243;PMS7003;57634;51.136;17.024;2022-12-20T09:28:45;20;15;10
70243;PMS7003;57634;51.136;17.024;2022-12-20T09:31:48;23;21;13
70243;PMS7003;57634;51.136;17.024;2022-12-20T09:34:49;22;20;10
70243;PMS7003;57634;51.136;17.024;2022-12-20T09:37:50;15;13;8
70243;PMS7003;57634;51.136;17.024;2022-12-20T09:40:56;19;16;9
70243;PMS7003;57634;51.136;17.024;2022-12-20T09:43:59;19;16;8
70243;PMS7003;57634;51.136;17.024;2022-12-20T09:47:05;19;18;9
70243;PMS7003;57634;51.136;17.024;2022-12-20T09:50:42;20;15;10
70243;PMS7003;57634;51.136;17.024;2022-12-20T10:00:20;19;16;8
70243;PMS7003;57634;51.136;17.024;2022-12-20T10:03:30;19;16;9
70243;PMS7003;57634;51.136;17.024;2022-12-20T10:13:34;18;17;11
70243;PMS7003;57634;51.136;17.024;2022-12-20T10:16:44;21;18;12
70243;PMS7003;57634;51.136;17.024;2022-12-20T10:23:32;22;17;11
70243;PMS7003;57634;51.136;17.024;2022-12-20T10:26:41;21;16;11
70243;PMS7003;57634;51.136;17.024;2022-12-20T10:29:43;22;20;13
70243;PMS7003;57634;51.136;17.024;2022-12-20T10:32:45;20;18;11
70243;PMS7003;57634;51.136;17.024;2022-12-20T10:35:48;21;18;11
70243;PMS7003;57634;51.136;17.024;2022-12-20T10:38:51;23;17;12
70243;PMS7003;57634;51.136;17.024;2022-12-20T10:41:57;21;16;10
70243;PMS7003;57634;51.136;17.024;2022-12-20T10:44:58;24;20;12
70243;PMS7003;57634;51.136;17.024;2022-12-20T10:48:00;21;19;12
70243;PMS7003;57634;51.136;17.024;2022-12-20T10:51:33;22;16;11
70243;PMS7003;57634;51.136;17.024;2022-12-20T10:54:35;17;16;9
70243;PMS7003;57634;51.136;17.024;2022-12-20T10:57:41;19;16;10
70243;PMS7003;57634;51.136;17.024;2022-12-20T11:00:43;20;17;10
70243;PMS7003;57634;51.136;17.024;2022-12-20T11:03:49;25;20;12
70243;PMS7003;57634;51.136;17.024;2022-12-20T11:06:57;21;16;11
70243;PMS7003;57634;51.136;17.024;2022-12-20T11:10:02;20;19;13
70243;PMS7003;57634;51.136;17.024;2022-12-20T11:16:56;24;19;11
70243;PMS7003;57634;51.136;17.024;2022-12-20T11:20:03;20;19;13
70243;PMS7003;57634;51.136;17.024;2022-12-20T11:26:34;23;21;12
70243;PMS7003;57634;51.136;17.024;2022-12-20T11:29:46;23;19;12
70243;PMS7003;57634;51.136;17.024;2022-12-20T11:56:25;27;23;15
70243;PMS7003;57634;51.136;17.024;2022-12-20T12:00:01;25;23;14
70243;PMS7003;57634;51.136;17.024;2022-12-20T12:06:28;28;24;16
70243;PMS7003;57634;51.136;17.024;2022-12-20T12:09:33;32;27;17
70243;PMS7003;57634;51.136;17.024;2022-12-20T12:12:43;31;27;17
70243;PMS7003;57634;51.136;17.024;2022-12-20T12:16:19;31;26;18
70243;PMS7003;57634;51.136;17.024;2022-12-20T12:19:29;31;26;16
70243;PMS7003;57634;51.136;17.024;2022-12-20T12:22:33;33;28;15
70243;PMS7003;57634;51.136;17.024;2022-12-20T12:25:38;25;21;12
70243;PMS7003;57634;51.136;17.024;2022-12-20T12:28:39;29;23;15
70243;PMS7003;57634;51.136;17.024;2022-12-20T12:45:05;31;28;16
70243;PMS7003;57634;51.136;17.024;2022-12-20T12:48:18;30;25;14
70243;PMS7003;57634;51.136;17.024;2022-12-20T12:51:55;31;28;18
70243;PMS7003;57634;51.136;17.024;2022-12-20T12:55:02;44;36;22
70243;PMS7003;57634;51.136;17.024;2022-12-20T13:01:45;40;31;19
70243;PMS7003;57634;51.136;17.024;2022-12-20T13:04:51;18;17;14
70243;PMS7003;57634;51.136;17.024;2022-12-20T13:08:15;25;23;14
70243;PMS7003;57634;51.136;17.024;2022-12-20T13:17:45;29;25;15
70243;PMS7003;57634;51.136;17.024;2022-12-20T13:27:53;48;38;25
70243;PMS7003;57634;51.136;17.024;2022-12-20T13:34:22;26;25;16
70243;PMS7003;57634;51.136;17.024;2022-12-20T13:41:00;27;24;15
70243;PMS7003;57634;51.136;17.024;2022-12-20T13:50:35;29;25;16
70243;PMS7003;57634;51.136;17.024;2022-12-20T13:57:25;34;29;18
70243;PMS7003;57634;51.136;17.024;2022-12-20T14:00:33;27;25;17
70243;PMS7003;57634;51.136;17.024;2022-12-20T14:03:39;28;22;15
70243;PMS7003;57634;51.136;17.024;2022-12-20T14:06:42;26;23;16
70243;PMS7003;57634;51.136;17.024;2022-12-20T14:09:44;27;24;16
70243;PMS7003;57634;51.136;17.024;2022-12-20T14:12:48;24;23;16
70243;PMS7003;57634;51.136;17.024;2022-12-20T14:15:51;43;35;21
70243;PMS7003;57634;51.136;17.024;2022-12-20T14:19:00;25;24;15
70243;PMS7003;57634;51.136;17.024;2022-12-20T14:22:32;30;24;14
70243;PMS7003;57634;51.136;17.024;2022-12-20T14:25:41;27;22;15
70243;PMS7003;57634;51.136;17.024;2022-12-20T14:28:47;22;19;11
70243;PMS7003;57634;51.136;17.024;2022-12-20T14:31:51;24;19;12
70243;PMS7003;57634;51.136;17.024;2022-12-20T14:34:53;21;19;13
70243;PMS7003;57634;51.136;17.024;2022-12-20T14:37:57;22;20;14
70243;PMS7003;57634;51.136;17.024;2022-12-20T14:41:04;21;20;14
70243;PMS7003;57634;51.136;17.024;2022-12-20T14:44:15;20;17;12
70243;PMS7003;57634;51.136;17.024;2022-12-20T14:47:53;26;25;13
70243;PMS7003;57634;51.136;17.024;2022-12-20T14:51:03;19;17;12
70243;PMS7003;57634;51.136;17.024;2022-12-20T14:54:04;25;23;15
70243;PMS7003;57634;51.136;17.024;2022-12-20T14:57:09;22;19;13
70243;PMS7003;57634;51.136;17.024;2022-12-20T15:00:25;24;22;15
70243;PMS7003;57634;51.136;17.024;2022-12-20T15:03:29;22;20;14
70243;PMS7003;57634;51.136;17.024;2022-12-20T15:06:57;41;34;22
70243;PMS7003;57634;51.136;17.024;2022-12-20T15:09:59;40;32;19
70243;PMS7003;57634;51.136;17.024;2022-12-20T15:13:01;40;32;20
70243;PMS7003;57634;51.136;17.024;2022-12-20T15:16:03;34;29;19
70243;PMS7003;57634;51.136;17.024;2022-12-20T15:19:11;27;25;13
70243;PMS7003;57634;51.136;17.024;2022-12-20T15:22:16;32;28;18
70243;PMS7003;57634;51.136;17.024;2022-12-20T15:25:20;25;22;14
70243;PMS7003;57634;51.136;17.024;2022-12-20T15:28:23;30;28;17
70243;PMS7003;57634;51.136;17.024;2022-12-20T15:31:26;30;25;17
70243;PMS7003;57634;51.136;17.024;2022-12-20T15:34:33;33;28;17
70243;PMS7003;57634;51.136;17.024;2022-12-20T15:38:04;25;22;14
70243;PMS7003;57634;51.136;17.024;2022-12-20T15:41:07;33;27;17
70243;PMS7003;57634;51.136;17.024;2022-12-20T15:44:32;32;25;16
70243;PMS7003;57634;51.136;17.024;2022-12-20T15:47:24;30;27;18
70243;PMS7003;57634;51.136;17.024;2022-12-20T15:50:26;29;26;17
70243;PMS7003;57634;51.136;17.024;2022-12-20T15:53:30;28;26;18
70243;PMS7003;57634;51.136;17.024;2022-12-20T15:56:37;29;26;16
70243;PMS7003;57634;51.136;17.024;2022-12-20T15:59:38;31;28;18
70243;PMS7003;57634;51.136;17.024;2022-12-20T16:02:40;36;31;19
70243;PMS7003;57634;51.136;17.024;2022-12-20T16:06:11;28;26;17
70243;PMS7003;57634;51.136;17.024;2022-12-20T16:09:13;48;38;23
70243;PMS7003;57634;51.136;17.024;2022-12-20T16:12:20;29;26;18
70243;PMS7003;57634;51.136;17.024;2022-12-20T16:22:35;31;27;17
70243;PMS7003;57634;51.136;17.024;2022-12-20T16:25:36;27;26;17
70243;PMS7003;57634;51.136;17.024;2022-12-20T16:28:37;23;21;14
70243;PMS7003;57634;51.136;17.024;2022-12-20T16:31:39;32;26;17
70243;PMS7003;57634;51.136;17.024;2022-12-20T16:34:49;33;27;17
70243;PMS7003;57634;51.136;17.024;2022-12-20T16:37:52;23;20;13
70243;PMS7003;57634;51.136;17.024;2022-12-20T16:41:00;31;25;17
70243;PMS7003;57634;51.136;17.024;2022-12-20T16:44:14;33;27;18
70243;PMS7003;57634;51.136;17.024;2022-12-20T16:47:44;25;23;15
70243;PMS7003;57634;51.136;17.024;2022-12-20T16:50:47;25;22;14
70243;PMS7003;57634;51.136;17.024;2022-12-20T16:53:49;15;15;11
70243;PMS7003;57634;51.136;17.024;2022-12-20T16:56:52;29;21;14
70243;PMS7003;57634;51.136;17.024;2022-12-20T16:59:58;24;22;14
70243;PMS7003;57634;51.136;17.024;2022-12-20T17:03:00;28;25;16
70243;PMS7003;57634;51.136;17.024;2022-12-20T17:06:01;25;23;15
70243;PMS7003;57634;51.136;17.024;2022-12-20T17:09:03;31;27;15
70243;PMS7003;57634;51.136;17.024;2022-12-20T17:12:07;29;22;15
70243;PMS7003;57634;51.136;17.024;2022-12-20T17:15:23;25;23;14
70243;PMS7003;57634;51.136;17.024;2022-12-20T17:18:52;23;22;15
70243;PMS7003;57634;51.136;17.024;2022-12-20T17:21:55;27;25;16
70243;PMS7003;57634;51.136;17.024;2022-12-20T17:24:57;24;22;15
70243;PMS7003;57634;51.136;17.024;2022-12-20T17:27:58;21;19;12
70243;PMS7003;57634;51.136;17.024;2022-12-20T17:30:59;29;23;15
70243;PMS7003;57634;51.136;17.024;2022-12-20T17:34:01;33;28;18
70243;PMS7003;57634;51.136;17.024;2022-12-20T17:37:03;24;21;13
70243;PMS7003;57634;51.136;17.024;2022-12-20T17:40:05;21;19;14
70243;PMS7003;57634;51.136;17.024;2022-12-20T17:43:09;19;18;11
70243;PMS7003;57634;51.136;17.024;2022-12-20T17:46:13;20;18;12
70243;PMS7003;57634;51.136;17.024;2022-12-20T17:49:15;22;18;12
70243;PMS7003;57634;51.136;17.024;2022-12-20T17:52:16;25;21;12
70243;PMS7003;57634;51.136;17.024;2022-12-20T17:55:22;23;22;13
70243;PMS7003;57634;51.136;17.024;2022-12-20T17:58:53;29;24;16
70243;PMS7003;57634;51.136;17.024;2022-12-20T18:02:00;23;20;13
70243;PMS7003;57634;51.136;17.024;2022-12-20T18:05:01;20;18;13
70243;PMS7003;57634;51.136;17.024;2022-12-20T18:08:08;22;19;12
70243;PMS7003;57634;51.136;17.024;2022-12-20T18:11:09;24;20;12
70243;PMS7003;57634;51.136;17.024;2022-12-20T18:14:11;23;22;13
70243;PMS7003;57634;51.136;17.024;2022-12-20T18:17:14;21;20;13
70243;PMS7003;57634;51.136;17.024;2022-12-20T18:20:17;21;20;14
70243;PMS7003;57634;51.136;17.024;2022-12-20T18:23:19;28;23;16
70243;PMS7003;57634;51.136;17.024;2022-12-20T18:26:21;46;37;23
70243;PMS7003;57634;51.136;17.024;2022-12-20T18:29:54;38;30;18
70243;PMS7003;57634;51.136;17.024;2022-12-20T18:32:56;37;31;18
70243;PMS7003;57634;51.136;17.024;2022-12-20T18:39:05;17;13;9
70243;PMS7003;57634;51.136;17.024;2022-12-20T18:42:08;23;21;15
70243;PMS7003;57634;51.136;17.024;2022-12-20T18:45:10;29;23;14
70243;PMS7003;57634;51.136;17.024;2022-12-20T18:48:11;23;20;13
70243;PMS7003;57634;51.136;17.024;2022-12-20T18:54:21;33;26;16
70243;PMS7003;57634;51.136;17.024;2022-12-20T18:57:22;24;19;11
70243;PMS7003;57634;51.136;17.024;2022-12-20T19:00:23;31;28;18
70243;PMS7003;57634;51.136;17.024;2022-12-20T19:03:25;33;29;19
70243;PMS7003;57634;51.136;17.024;2022-12-20T19:06:52;33;28;19
70243;PMS7003;57634;51.136;17.024;2022-12-20T19:09:54;27;23;14
70243;PMS7003;57634;51.136;17.024;2022-12-20T19:12:55;20;19;11
70243;PMS7003;57634;51.136;17.024;2022-12-20T19:16:01;21;17;11
70243;PMS7003;57634;51.136;17.024;2022-12-20T19:19:03;25;21;11
70243;PMS7003;57634;51.136;17.024;2022-12-20T19:22:06;21;19;12
70243;PMS7003;57634;51.136;17.024;2022-12-20T19:25:08;23;17;10
70243;PMS7003;57634;51.136;17.024;2022-12-20T19:28:09;24;22;12
70243;PMS7003;57634;51.136;17.024;2022-12-20T19:31:12;28;24;16
70243;PMS7003;57634;51.136;17.024;2022-12-20T19:34:15;40;32;20
70243;PMS7003;57634;51.136;17.024;2022-12-20T19:37:17;30;27;17
70243;PMS7003;57634;51.136;17.024;2022-12-20T19:40:19;38;31;19
70243;PMS7003;57634;51.136;17.024;2022-12-20T19:43:48;44;33;21
70243;PMS7003;57634;51.136;17.024;2022-12-20T19:46:51;32;25;15
70243;PMS7003;57634;51.136;17.024;2022-12-20T19:49:52;26;24;16
70243;PMS7003;57634;51.136;17.024;2022-12-20T19:52:53;23;21;14
70243;PMS7003;57634;51.136;17.024;2022-12-20T20:02:21;32;28;16
70243;PMS7003;57634;51.136;17.024;2022-12-20T20:05:23;33;26;16
70243;PMS7003;57634;51.136;17.024;2022-12-20T20:08:25;32;27;17
70243;PMS7003;57634;51.136;17.024;2022-12-20T20:11:52;29;25;16
70243;PMS7003;57634;51.136;17.024;2022-12-20T20:14:53;30;27;16
70243;PMS7003;57634;51.136;17.024;2022-12-20T20:17:55;27;22;14
70243;PMS7003;57634;51.136;17.024;2022-12-20T20:20:57;22;18;9
70243;PMS7003;57634;51.136;17.024;2022-12-20T20:34:15;30;26;17
70243;PMS7003;57634;51.136;17.024;2022-12-20T20:43:48;31;26;16
70243;PMS7003;57634;51.136;17.024;2022-12-20T20:46:49;29;25;16
70243;PMS7003;57634;51.136;17.024;2022-12-20T20:49:50;23;22;13
70243;PMS7003;57634;51.136;17.024;2022-12-20T20:52:54;26;22;13
70243;PMS7003;57634;51.136;17.024;2022-12-20T20:55:55;27;25;16
70243;PMS7003;57634;51.136;17.024;2022-12-20T20:59:30;26;23;13
70243;PMS7003;57634;51.136;17.024;2022-12-20T21:02:31;30;24;15
70243;PMS7003;57634;51.136;17.024;2022-12-20T21:05:33;27;23;14
70243;PMS7003;57634;51.136;17.024;2022-12-20T21:08:34;25;21;13
70243;PMS7003;57634;51.136;17.024;2022-12-20T21:11:36;24;21;14
70243;PMS7003;57634;51.136;17.024;2022-12-20T21:14:38;20;19;13
70243;PMS7003;57634;51.136;17.024;2022-12-20T21:17:39;29;25;17
70243;PMS7003;57634;51.136;17.024;2022-12-20T21:20:41;23;20;13
70243;PMS7003;57634;51.136;17.024;2022-12-20T21:23:43;26;24;16
70243;PMS7003;57634;51.136;17.024;2022-12-20T21:26:45;25;23;14
70243;PMS7003;57634;51.136;17.024;2022-12-20T21:29:47;23;21;13
70243;PMS7003;57634;51.136;17.024;2022-12-20T21:32:48;33;28;17
70243;PMS7003;57634;51.136;17.024;2022-12-20T21:35:57;28;23;14
70243;PMS7003;57634;51.136;17.024;2022-12-20T21:39:29;30;27;16
70243;PMS7003;57634;51.136;17.024;2022-12-20T21:42:30;29;25;14
70243;PMS7003;57634;51.136;17.024;2022-12-20T21:45:32;27;23;14
70243;PMS7003;57634;51.136;17.024;2022-12-20T21:48:33;24;23;13
70243;PMS7003;57634;51.136;17.024;2022-12-20T21:51:34;21;20;13
70243;PMS7003;57634;51.136;17.024;2022-12-20T21:54:36;22;20;13
70243;PMS7003;57634;51.136;17.024;2022-12-20T21:57:37;26;25;15
70243;PMS7003;57634;51.136;17.024;2022-12-20T22:00:38;32;28;17
70243;PMS7003;57634;51.136;17.024;2022-12-20T22:03:42;25;23;16
70243;PMS7003;57634;51.136;17.024;2022-12-20T22:06:44;25;24;16
70243;PMS7003;57634;51.136;17.024;2022-12-20T22:09:46;27;25;16
70243;PMS7003;57634;51.136;17.024;2022-12-20T22:12:47;24;20;15
70243;PMS7003;57634;51.136;17.024;2022-12-20T22:15:48;20;17;11
70243;PMS7003;57634;51.136;17.024;2022-12-20T22:18:52;22;19;12